Krems Heliport LOAK

Flugplatz Daten

Name: Krems Heliport

Ident: LOAK

Lat: 48,41333389

Long: 15,61638927

Platzhöhe: 647 ft

IataCode:

City: Krems

Metar

2019/02/04 01:30
RJTT 040130Z 36009KT 9999 FEW025 SCT060 16/06 Q1006 NOSIG RMK 1CU025 3SC060 A2972 MOD TURB OBS AT 0110Z AROUND CLOAK 4000FT BY B773

Taf

Gewünschte Webcam nicht vorhanden? Dann fügen Sie eine hinzu. Sie wird dann so schnell wie möglich freigeschaltet
Url: Title: